sensor_id;sensor_type;location;lat;lon;timestamp;P1;durP1;ratioP1;P2;durP2;ratioP2
19434;SDS011;9853;50.848;4.108;2022-08-19T00:01:42;26.02;;;19.83;;
19434;SDS011;9853;50.848;4.108;2022-08-19T00:03:44;30.00;;;19.83;;
19434;SDS011;9853;50.848;4.108;2022-08-19T00:05:45;30.45;;;22.77;;
19434;SDS011;9853;50.848;4.108;2022-08-19T00:07:46;32.20;;;23.67;;
19434;SDS011;9853;50.848;4.108;2022-08-19T00:09:46;33.45;;;23.90;;
19434;SDS011;9853;50.848;4.108;2022-08-19T00:11:47;39.95;;;28.25;;
19434;SDS011;9853;50.848;4.108;2022-08-19T00:13:49;38.13;;;27.83;;
19434;SDS011;9853;50.848;4.108;2022-08-19T00:15:50;32.95;;;24.45;;
19434;SDS011;9853;50.848;4.108;2022-08-19T00:17:51;44.03;;;28.92;;
19434;SDS011;9853;50.848;4.108;2022-08-19T00:19:52;36.80;;;24.85;;
19434;SDS011;9853;50.848;4.108;2022-08-19T00:21:53;30.73;;;23.77;;
19434;SDS011;9853;50.848;4.108;2022-08-19T00:23:54;41.30;;;28.17;;
19434;SDS011;9853;50.848;4.108;2022-08-19T00:25:58;37.70;;;27.48;;
19434;SDS011;9853;50.848;4.108;2022-08-19T00:27:58;36.83;;;25.33;;
19434;SDS011;9853;50.848;4.108;2022-08-19T00:29:59;32.92;;;25.50;;
19434;SDS011;9853;50.848;4.108;2022-08-19T00:32:02;41.15;;;26.25;;
19434;SDS011;9853;50.848;4.108;2022-08-19T00:34:04;44.47;;;28.50;;
19434;SDS011;9853;50.848;4.108;2022-08-19T00:36:06;41.05;;;28.73;;
19434;SDS011;9853;50.848;4.108;2022-08-19T00:38:07;39.95;;;28.38;;
19434;SDS011;9853;50.848;4.108;2022-08-19T00:40:08;41.15;;;30.17;;
19434;SDS011;9853;50.848;4.108;2022-08-19T00:42:09;41.13;;;28.85;;
19434;SDS011;9853;50.848;4.108;2022-08-19T00:44:11;39.83;;;28.35;;
19434;SDS011;9853;50.848;4.108;2022-08-19T00:46:20;38.08;;;28.20;;
19434;SDS011;9853;50.848;4.108;2022-08-19T00:48:21;42.45;;;29.42;;
19434;SDS011;9853;50.848;4.108;2022-08-19T00:50:23;39.38;;;28.42;;
19434;SDS011;9853;50.848;4.108;2022-08-19T00:52:27;39.53;;;27.30;;
19434;SDS011;9853;50.848;4.108;2022-08-19T00:54:32;42.05;;;28.73;;
19434;SDS011;9853;50.848;4.108;2022-08-19T00:56:33;39.10;;;28.10;;
19434;SDS011;9853;50.848;4.108;2022-08-19T00:58:55;35.58;;;24.95;;
19434;SDS011;9853;50.848;4.108;2022-08-19T01:00:58;36.95;;;24.20;;
19434;SDS011;9853;50.848;4.108;2022-08-19T01:02:59;33.72;;;24.52;;
19434;SDS011;9853;50.848;4.108;2022-08-19T01:05:01;35.85;;;25.65;;
19434;SDS011;9853;50.848;4.108;2022-08-19T01:07:04;34.03;;;23.95;;
19434;SDS011;9853;50.848;4.108;2022-08-19T01:09:06;38.00;;;27.35;;
19434;SDS011;9853;50.848;4.108;2022-08-19T01:11:10;32.63;;;24.20;;
19434;SDS011;9853;50.848;4.108;2022-08-19T01:13:14;31.95;;;24.02;;
19434;SDS011;9853;50.848;4.108;2022-08-19T01:15:17;35.83;;;25.17;;
19434;SDS011;9853;50.848;4.108;2022-08-19T01:17:21;38.45;;;24.38;;
19434;SDS011;9853;50.848;4.108;2022-08-19T01:19:32;32.90;;;22.63;;
19434;SDS011;9853;50.848;4.108;2022-08-19T01:21:47;32.20;;;23.17;;
19434;SDS011;9853;50.848;4.108;2022-08-19T01:24:03;35.70;;;25.40;;
19434;SDS011;9853;50.848;4.108;2022-08-19T01:26:04;32.08;;;23.58;;
19434;SDS011;9853;50.848;4.108;2022-08-19T01:28:05;30.00;;;22.52;;
19434;SDS011;9853;50.848;4.108;2022-08-19T01:30:06;31.42;;;22.80;;
19434;SDS011;9853;50.848;4.108;2022-08-19T01:32:08;32.30;;;20.95;;
19434;SDS011;9853;50.848;4.108;2022-08-19T01:34:11;33.70;;;22.92;;
19434;SDS011;9853;50.848;4.108;2022-08-19T01:36:14;34.13;;;22.88;;
19434;SDS011;9853;50.848;4.108;2022-08-19T01:38:24;30.85;;;23.05;;
19434;SDS011;9853;50.848;4.108;2022-08-19T01:40:30;32.75;;;23.00;;
19434;SDS011;9853;50.848;4.108;2022-08-19T01:42:32;31.35;;;21.48;;
19434;SDS011;9853;50.848;4.108;2022-08-19T01:44:33;37.30;;;25.30;;
19434;SDS011;9853;50.848;4.108;2022-08-19T01:46:36;35.38;;;21.80;;
19434;SDS011;9853;50.848;4.108;2022-08-19T01:48:38;33.10;;;23.83;;
19434;SDS011;9853;50.848;4.108;2022-08-19T01:50:40;32.00;;;25.23;;
19434;SDS011;9853;50.848;4.108;2022-08-19T01:52:42;41.78;;;26.75;;
19434;SDS011;9853;50.848;4.108;2022-08-19T01:54:44;37.65;;;25.83;;
19434;SDS011;9853;50.848;4.108;2022-08-19T01:56:45;33.55;;;24.48;;
19434;SDS011;9853;50.848;4.108;2022-08-19T01:58:49;37.65;;;26.17;;
19434;SDS011;9853;50.848;4.108;2022-08-19T02:01:03;36.08;;;24.98;;
19434;SDS011;9853;50.848;4.108;2022-08-19T02:03:04;38.13;;;26.23;;
19434;SDS011;9853;50.848;4.108;2022-08-19T02:05:06;36.28;;;23.38;;
19434;SDS011;9853;50.848;4.108;2022-08-19T02:07:08;37.63;;;24.05;;
19434;SDS011;9853;50.848;4.108;2022-08-19T02:09:09;35.50;;;22.90;;
19434;SDS011;9853;50.848;4.108;2022-08-19T02:11:17;32.90;;;22.48;;
19434;SDS011;9853;50.848;4.108;2022-08-19T02:13:20;33.67;;;23.65;;
19434;SDS011;9853;50.848;4.108;2022-08-19T02:15:21;29.23;;;20.48;;
19434;SDS011;9853;50.848;4.108;2022-08-19T02:17:22;32.38;;;23.08;;
19434;SDS011;9853;50.848;4.108;2022-08-19T02:19:23;32.95;;;22.35;;
19434;SDS011;9853;50.848;4.108;2022-08-19T02:21:23;33.88;;;23.73;;
19434;SDS011;9853;50.848;4.108;2022-08-19T02:23:24;35.70;;;24.13;;
19434;SDS011;9853;50.848;4.108;2022-08-19T02:25:25;34.65;;;23.10;;
19434;SDS011;9853;50.848;4.108;2022-08-19T02:27:26;32.90;;;23.33;;
19434;SDS011;9853;50.848;4.108;2022-08-19T02:29:26;33.60;;;23.95;;
19434;SDS011;9853;50.848;4.108;2022-08-19T02:31:27;31.23;;;21.30;;
19434;SDS011;9853;50.848;4.108;2022-08-19T02:33:28;38.50;;;23.08;;
19434;SDS011;9853;50.848;4.108;2022-08-19T02:35:29;36.38;;;24.33;;
19434;SDS011;9853;50.848;4.108;2022-08-19T02:37:31;37.22;;;24.17;;
19434;SDS011;9853;50.848;4.108;2022-08-19T02:39:50;31.77;;;21.20;;
19434;SDS011;9853;50.848;4.108;2022-08-19T02:41:51;29.95;;;19.20;;
19434;SDS011;9853;50.848;4.108;2022-08-19T02:43:52;31.27;;;20.83;;
19434;SDS011;9853;50.848;4.108;2022-08-19T02:45:57;28.27;;;20.17;;
19434;SDS011;9853;50.848;4.108;2022-08-19T02:47:58;30.65;;;20.10;;
19434;SDS011;9853;50.848;4.108;2022-08-19T02:50:00;26.52;;;19.63;;
19434;SDS011;9853;50.848;4.108;2022-08-19T02:52:02;32.50;;;20.95;;
19434;SDS011;9853;50.848;4.108;2022-08-19T02:54:03;29.35;;;21.33;;
19434;SDS011;9853;50.848;4.108;2022-08-19T02:56:06;32.65;;;20.60;;
19434;SDS011;9853;50.848;4.108;2022-08-19T02:58:07;30.83;;;21.00;;
19434;SDS011;9853;50.848;4.108;2022-08-19T03:00:08;32.65;;;19.25;;
19434;SDS011;9853;50.848;4.108;2022-08-19T03:02:12;28.52;;;18.95;;
19434;SDS011;9853;50.848;4.108;2022-08-19T03:04:16;31.50;;;17.58;;
19434;SDS011;9853;50.848;4.108;2022-08-19T03:06:16;33.90;;;19.38;;
19434;SDS011;9853;50.848;4.108;2022-08-19T03:08:18;27.95;;;19.42;;
19434;SDS011;9853;50.848;4.108;2022-08-19T03:10:22;31.20;;;19.20;;
19434;SDS011;9853;50.848;4.108;2022-08-19T03:12:23;29.85;;;18.33;;
19434;SDS011;9853;50.848;4.108;2022-08-19T03:14:32;26.95;;;17.33;;
19434;SDS011;9853;50.848;4.108;2022-08-19T03:16:52;31.63;;;19.67;;
19434;SDS011;9853;50.848;4.108;2022-08-19T03:18:56;30.88;;;19.88;;
19434;SDS011;9853;50.848;4.108;2022-08-19T03:21:04;28.70;;;18.40;;
19434;SDS011;9853;50.848;4.108;2022-08-19T03:23:14;28.98;;;18.33;;
19434;SDS011;9853;50.848;4.108;2022-08-19T03:25:24;27.02;;;18.10;;
19434;SDS011;9853;50.848;4.108;2022-08-19T03:27:25;29.50;;;17.23;;
19434;SDS011;9853;50.848;4.108;2022-08-19T03:29:53;28.55;;;16.85;;
19434;SDS011;9853;50.848;4.108;2022-08-19T03:31:54;27.63;;;17.23;;
19434;SDS011;9853;50.848;4.108;2022-08-19T03:33:55;25.70;;;16.13;;
19434;SDS011;9853;50.848;4.108;2022-08-19T03:38:34;26.45;;;15.30;;
19434;SDS011;9853;50.848;4.108;2022-08-19T03:40:38;29.40;;;16.95;;
19434;SDS011;9853;50.848;4.108;2022-08-19T03:42:43;26.92;;;15.85;;
19434;SDS011;9853;50.848;4.108;2022-08-19T03:44:43;25.20;;;15.70;;
19434;SDS011;9853;50.848;4.108;2022-08-19T03:46:45;21.02;;;15.30;;
19434;SDS011;9853;50.848;4.108;2022-08-19T03:48:48;24.92;;;14.43;;
19434;SDS011;9853;50.848;4.108;2022-08-19T03:50:56;25.20;;;15.63;;
19434;SDS011;9853;50.848;4.108;2022-08-19T03:52:58;24.85;;;15.50;;
19434;SDS011;9853;50.848;4.108;2022-08-19T03:55:01;28.65;;;16.00;;
19434;SDS011;9853;50.848;4.108;2022-08-19T03:57:07;27.13;;;15.27;;
19434;SDS011;9853;50.848;4.108;2022-08-19T03:59:09;26.58;;;15.45;;
19434;SDS011;9853;50.848;4.108;2022-08-19T04:01:14;29.38;;;17.23;;
19434;SDS011;9853;50.848;4.108;2022-08-19T04:03:39;29.80;;;13.43;;
19434;SDS011;9853;50.848;4.108;2022-08-19T04:06:11;23.70;;;14.75;;
19434;SDS011;9853;50.848;4.108;2022-08-19T04:08:26;21.92;;;13.43;;
19434;SDS011;9853;50.848;4.108;2022-08-19T04:10:27;27.90;;;14.75;;
19434;SDS011;9853;50.848;4.108;2022-08-19T04:12:36;26.38;;;13.50;;
19434;SDS011;9853;50.848;4.108;2022-08-19T04:14:37;25.08;;;15.10;;
19434;SDS011;9853;50.848;4.108;2022-08-19T04:16:46;26.13;;;15.55;;
19434;SDS011;9853;50.848;4.108;2022-08-19T04:19:08;22.70;;;14.10;;
19434;SDS011;9853;50.848;4.108;2022-08-19T04:21:19;21.85;;;14.10;;
19434;SDS011;9853;50.848;4.108;2022-08-19T04:23:22;26.35;;;15.32;;
19434;SDS011;9853;50.848;4.108;2022-08-19T04:25:23;26.58;;;14.88;;
19434;SDS011;9853;50.848;4.108;2022-08-19T04:27:24;24.08;;;14.82;;
19434;SDS011;9853;50.848;4.108;2022-08-19T04:29:25;25.60;;;14.80;;
19434;SDS011;9853;50.848;4.108;2022-08-19T04:31:28;24.98;;;15.13;;
19434;SDS011;9853;50.848;4.108;2022-08-19T04:33:33;25.95;;;14.52;;
19434;SDS011;9853;50.848;4.108;2022-08-19T04:35:38;28.85;;;14.40;;
19434;SDS011;9853;50.848;4.108;2022-08-19T04:37:41;29.52;;;14.50;;
19434;SDS011;9853;50.848;4.108;2022-08-19T04:39:42;21.70;;;14.18;;
19434;SDS011;9853;50.848;4.108;2022-08-19T04:42:05;35.28;;;14.25;;
19434;SDS011;9853;50.848;4.108;2022-08-19T04:44:24;24.60;;;13.75;;
19434;SDS011;9853;50.848;4.108;2022-08-19T04:46:31;28.73;;;14.65;;
19434;SDS011;9853;50.848;4.108;2022-08-19T04:48:32;21.02;;;12.52;;
19434;SDS011;9853;50.848;4.108;2022-08-19T04:50:38;26.02;;;12.68;;
19434;SDS011;9853;50.848;4.108;2022-08-19T04:52:49;24.10;;;13.15;;
19434;SDS011;9853;50.848;4.108;2022-08-19T04:54:55;28.90;;;14.00;;
19434;SDS011;9853;50.848;4.108;2022-08-19T04:56:56;24.95;;;11.93;;
19434;SDS011;9853;50.848;4.108;2022-08-19T04:58:56;23.83;;;12.25;;
19434;SDS011;9853;50.848;4.108;2022-08-19T05:00:57;25.67;;;12.70;;
19434;SDS011;9853;50.848;4.108;2022-08-19T05:03:00;26.60;;;13.27;;
19434;SDS011;9853;50.848;4.108;2022-08-19T05:05:18;24.88;;;12.85;;
19434;SDS011;9853;50.848;4.108;2022-08-19T05:07:19;18.05;;;11.98;;
19434;SDS011;9853;50.848;4.108;2022-08-19T05:09:23;22.08;;;12.02;;
19434;SDS011;9853;50.848;4.108;2022-08-19T05:11:28;21.45;;;11.77;;
19434;SDS011;9853;50.848;4.108;2022-08-19T05:13:31;20.02;;;11.02;;
19434;SDS011;9853;50.848;4.108;2022-08-19T05:15:34;20.88;;;12.60;;
19434;SDS011;9853;50.848;4.108;2022-08-19T05:17:36;19.48;;;12.82;;
19434;SDS011;9853;50.848;4.108;2022-08-19T05:19:43;26.42;;;13.07;;
19434;SDS011;9853;50.848;4.108;2022-08-19T05:22:02;27.40;;;12.90;;
19434;SDS011;9853;50.848;4.108;2022-08-19T05:24:22;19.90;;;12.35;;
19434;SDS011;9853;50.848;4.108;2022-08-19T05:26:24;25.00;;;12.50;;
19434;SDS011;9853;50.848;4.108;2022-08-19T05:28:26;18.85;;;12.23;;
19434;SDS011;9853;50.848;4.108;2022-08-19T05:30:36;23.80;;;13.05;;
19434;SDS011;9853;50.848;4.108;2022-08-19T05:32:37;20.63;;;11.18;;
19434;SDS011;9853;50.848;4.108;2022-08-19T05:34:48;22.20;;;11.40;;
19434;SDS011;9853;50.848;4.108;2022-08-19T05:36:50;21.65;;;12.38;;
19434;SDS011;9853;50.848;4.108;2022-08-19T05:38:55;20.85;;;11.88;;
19434;SDS011;9853;50.848;4.108;2022-08-19T05:41:12;19.33;;;11.52;;
19434;SDS011;9853;50.848;4.108;2022-08-19T05:43:14;23.70;;;13.02;;
19434;SDS011;9853;50.848;4.108;2022-08-19T05:45:16;23.95;;;12.02;;
19434;SDS011;9853;50.848;4.108;2022-08-19T05:47:17;25.42;;;12.30;;
19434;SDS011;9853;50.848;4.108;2022-08-19T05:49:22;26.55;;;13.05;;
19434;SDS011;9853;50.848;4.108;2022-08-19T05:51:25;19.92;;;11.75;;
19434;SDS011;9853;50.848;4.108;2022-08-19T05:53:27;26.13;;;11.57;;
19434;SDS011;9853;50.848;4.108;2022-08-19T05:55:29;26.80;;;12.18;;
19434;SDS011;9853;50.848;4.108;2022-08-19T05:57:31;18.58;;;11.20;;
19434;SDS011;9853;50.848;4.108;2022-08-19T05:59:31;18.92;;;9.20;;
19434;SDS011;9853;50.848;4.108;2022-08-19T06:01:40;24.63;;;10.52;;
19434;SDS011;9853;50.848;4.108;2022-08-19T06:03:56;16.23;;;10.20;;
19434;SDS011;9853;50.848;4.108;2022-08-19T06:05:57;20.15;;;11.07;;
19434;SDS011;9853;50.848;4.108;2022-08-19T06:07:59;18.08;;;10.75;;
19434;SDS011;9853;50.848;4.108;2022-08-19T06:10:04;19.98;;;10.93;;
19434;SDS011;9853;50.848;4.108;2022-08-19T06:12:09;21.58;;;10.88;;
19434;SDS011;9853;50.848;4.108;2022-08-19T06:14:11;20.85;;;11.50;;
19434;SDS011;9853;50.848;4.108;2022-08-19T06:16:18;23.65;;;11.65;;
19434;SDS011;9853;50.848;4.108;2022-08-19T06:18:23;20.42;;;11.32;;
19434;SDS011;9853;50.848;4.108;2022-08-19T06:20:24;18.05;;;10.82;;
19434;SDS011;9853;50.848;4.108;2022-08-19T06:22:26;19.20;;;10.95;;
19434;SDS011;9853;50.848;4.108;2022-08-19T06:24:31;22.13;;;11.02;;
19434;SDS011;9853;50.848;4.108;2022-08-19T06:26:32;17.38;;;10.05;;
19434;SDS011;9853;50.848;4.108;2022-08-19T06:28:35;22.08;;;10.23;;
19434;SDS011;9853;50.848;4.108;2022-08-19T06:30:36;17.45;;;8.65;;
19434;SDS011;9853;50.848;4.108;2022-08-19T06:32:39;20.83;;;9.48;;
19434;SDS011;9853;50.848;4.108;2022-08-19T06:34:41;18.15;;;9.20;;
19434;SDS011;9853;50.848;4.108;2022-08-19T06:36:43;17.27;;;8.73;;
19434;SDS011;9853;50.848;4.108;2022-08-19T06:38:48;14.05;;;8.70;;
19434;SDS011;9853;50.848;4.108;2022-08-19T06:40:49;17.88;;;8.50;;
19434;SDS011;9853;50.848;4.108;2022-08-19T06:42:50;14.82;;;8.23;;
19434;SDS011;9853;50.848;4.108;2022-08-19T06:44:52;15.77;;;9.23;;
19434;SDS011;9853;50.848;4.108;2022-08-19T06:46:54;14.63;;;7.93;;
19434;SDS011;9853;50.848;4.108;2022-08-19T06:48:55;17.13;;;8.75;;
19434;SDS011;9853;50.848;4.108;2022-08-19T06:50:58;14.80;;;8.52;;
19434;SDS011;9853;50.848;4.108;2022-08-19T06:52:58;23.38;;;8.43;;
19434;SDS011;9853;50.848;4.108;2022-08-19T06:55:03;14.82;;;7.72;;
19434;SDS011;9853;50.848;4.108;2022-08-19T06:57:04;15.05;;;8.15;;
19434;SDS011;9853;50.848;4.108;2022-08-19T06:59:13;15.50;;;8.30;;
19434;SDS011;9853;50.848;4.108;2022-08-19T07:01:27;17.92;;;7.20;;
19434;SDS011;9853;50.848;4.108;2022-08-19T07:03:33;13.82;;;6.97;;
19434;SDS011;9853;50.848;4.108;2022-08-19T07:05:40;15.07;;;6.57;;
19434;SDS011;9853;50.848;4.108;2022-08-19T07:07:43;18.95;;;7.05;;
19434;SDS011;9853;50.848;4.108;2022-08-19T07:10:14;13.55;;;6.78;;
19434;SDS011;9853;50.848;4.108;2022-08-19T07:12:15;18.30;;;6.90;;
19434;SDS011;9853;50.848;4.108;2022-08-19T07:14:21;16.38;;;6.85;;
19434;SDS011;9853;50.848;4.108;2022-08-19T07:16:27;11.95;;;6.32;;
19434;SDS011;9853;50.848;4.108;2022-08-19T07:18:31;11.82;;;5.72;;
19434;SDS011;9853;50.848;4.108;2022-08-19T07:20:33;16.65;;;6.30;;
19434;SDS011;9853;50.848;4.108;2022-08-19T07:22:34;15.20;;;6.03;;
19434;SDS011;9853;50.848;4.108;2022-08-19T07:24:35;13.55;;;6.13;;
19434;SDS011;9853;50.848;4.108;2022-08-19T07:26:42;19.85;;;7.18;;
19434;SDS011;9853;50.848;4.108;2022-08-19T07:28:43;16.60;;;6.55;;
19434;SDS011;9853;50.848;4.108;2022-08-19T07:30:44;12.75;;;6.70;;
19434;SDS011;9853;50.848;4.108;2022-08-19T07:32:46;13.23;;;6.18;;
19434;SDS011;9853;50.848;4.108;2022-08-19T07:34:48;17.80;;;7.78;;
19434;SDS011;9853;50.848;4.108;2022-08-19T07:36:49;14.43;;;7.10;;
19434;SDS011;9853;50.848;4.108;2022-08-19T07:38:53;16.17;;;6.82;;
19434;SDS011;9853;50.848;4.108;2022-08-19T07:40:54;16.65;;;7.78;;
19434;SDS011;9853;50.848;4.108;2022-08-19T07:43:01;21.98;;;7.10;;
19434;SDS011;9853;50.848;4.108;2022-08-19T07:45:03;14.30;;;7.18;;
19434;SDS011;9853;50.848;4.108;2022-08-19T07:47:05;15.45;;;7.72;;
19434;SDS011;9853;50.848;4.108;2022-08-19T07:49:07;14.10;;;7.15;;
19434;SDS011;9853;50.848;4.108;2022-08-19T07:51:24;15.23;;;6.68;;
19434;SDS011;9853;50.848;4.108;2022-08-19T07:53:26;12.63;;;7.32;;
19434;SDS011;9853;50.848;4.108;2022-08-19T07:55:27;18.20;;;7.00;;
19434;SDS011;9853;50.848;4.108;2022-08-19T07:57:29;14.15;;;7.05;;
19434;SDS011;9853;50.848;4.108;2022-08-19T07:59:29;16.08;;;6.95;;
19434;SDS011;9853;50.848;4.108;2022-08-19T08:01:31;11.27;;;5.93;;
19434;SDS011;9853;50.848;4.108;2022-08-19T08:03:32;17.90;;;6.43;;
19434;SDS011;9853;50.848;4.108;2022-08-19T08:05:52;14.23;;;6.35;;
19434;SDS011;9853;50.848;4.108;2022-08-19T08:08:25;14.10;;;6.82;;
19434;SDS011;9853;50.848;4.108;2022-08-19T08:10:42;11.18;;;6.38;;
19434;SDS011;9853;50.848;4.108;2022-08-19T08:12:50;13.48;;;6.00;;
19434;SDS011;9853;50.848;4.108;2022-08-19T08:14:52;14.98;;;6.22;;
19434;SDS011;9853;50.848;4.108;2022-08-19T08:16:58;13.95;;;5.97;;
19434;SDS011;9853;50.848;4.108;2022-08-19T08:18:59;13.80;;;6.30;;
19434;SDS011;9853;50.848;4.108;2022-08-19T08:21:00;13.35;;;6.50;;
19434;SDS011;9853;50.848;4.108;2022-08-19T08:23:01;15.57;;;5.95;;
19434;SDS011;9853;50.848;4.108;2022-08-19T08:25:24;13.18;;;5.88;;
19434;SDS011;9853;50.848;4.108;2022-08-19T08:27:25;16.10;;;6.32;;
19434;SDS011;9853;50.848;4.108;2022-08-19T08:29:31;14.73;;;5.85;;
19434;SDS011;9853;50.848;4.108;2022-08-19T08:31:36;17.17;;;5.68;;
19434;SDS011;9853;50.848;4.108;2022-08-19T08:33:39;13.55;;;5.75;;
19434;SDS011;9853;50.848;4.108;2022-08-19T08:35:43;11.93;;;5.70;;
19434;SDS011;9853;50.848;4.108;2022-08-19T08:37:46;14.80;;;6.13;;
19434;SDS011;9853;50.848;4.108;2022-08-19T08:39:52;11.90;;;5.57;;
19434;SDS011;9853;50.848;4.108;2022-08-19T08:42:07;13.52;;;5.10;;
19434;SDS011;9853;50.848;4.108;2022-08-19T08:44:28;11.35;;;5.50;;
19434;SDS011;9853;50.848;4.108;2022-08-19T08:46:45;13.18;;;5.07;;
19434;SDS011;9853;50.848;4.108;2022-08-19T08:49:16;10.45;;;5.13;;
19434;SDS011;9853;50.848;4.108;2022-08-19T08:51:24;9.90;;;4.60;;
19434;SDS011;9853;50.848;4.108;2022-08-19T08:53:47;9.65;;;5.45;;
19434;SDS011;9853;50.848;4.108;2022-08-19T08:55:51;10.18;;;5.47;;
19434;SDS011;9853;50.848;4.108;2022-08-19T08:57:53;12.07;;;5.25;;
19434;SDS011;9853;50.848;4.108;2022-08-19T08:59:55;8.48;;;4.97;;
19434;SDS011;9853;50.848;4.108;2022-08-19T09:02:02;14.10;;;5.22;;
19434;SDS011;9853;50.848;4.108;2022-08-19T09:04:04;10.18;;;5.10;;
19434;SDS011;9853;50.848;4.108;2022-08-19T09:06:10;8.55;;;4.85;;
19434;SDS011;9853;50.848;4.108;2022-08-19T09:08:45;10.23;;;5.20;;
19434;SDS011;9853;50.848;4.108;2022-08-19T09:10:57;10.48;;;4.82;;
19434;SDS011;9853;50.848;4.108;2022-08-19T09:15:27;15.85;;;5.32;;
19434;SDS011;9853;50.848;4.108;2022-08-19T09:17:31;12.63;;;4.97;;
19434;SDS011;9853;50.848;4.108;2022-08-19T09:19:34;8.27;;;5.10;;
19434;SDS011;9853;50.848;4.108;2022-08-19T09:21:46;9.75;;;5.43;;
19434;SDS011;9853;50.848;4.108;2022-08-19T09:23:48;14.40;;;6.43;;
19434;SDS011;9853;50.848;4.108;2022-08-19T09:25:53;10.93;;;5.82;;
19434;SDS011;9853;50.848;4.108;2022-08-19T09:28:00;8.15;;;5.13;;
19434;SDS011;9853;50.848;4.108;2022-08-19T09:30:05;15.02;;;6.07;;
19434;SDS011;9853;50.848;4.108;2022-08-19T09:32:07;15.00;;;5.90;;
19434;SDS011;9853;50.848;4.108;2022-08-19T09:34:12;11.10;;;6.25;;
19434;SDS011;9853;50.848;4.108;2022-08-19T09:36:14;11.48;;;5.72;;
19434;SDS011;9853;50.848;4.108;2022-08-19T09:38:34;19.88;;;6.40;;
19434;SDS011;9853;50.848;4.108;2022-08-19T09:40:48;16.63;;;6.38;;
19434;SDS011;9853;50.848;4.108;2022-08-19T09:42:52;11.35;;;6.55;;
19434;SDS011;9853;50.848;4.108;2022-08-19T09:44:53;14.13;;;5.60;;
19434;SDS011;9853;50.848;4.108;2022-08-19T09:46:53;9.43;;;6.15;;
19434;SDS011;9853;50.848;4.108;2022-08-19T09:48:57;11.05;;;5.40;;
19434;SDS011;9853;50.848;4.108;2022-08-19T09:51:03;10.75;;;5.57;;
19434;SDS011;9853;50.848;4.108;2022-08-19T09:53:08;12.02;;;5.68;;
19434;SDS011;9853;50.848;4.108;2022-08-19T09:55:09;11.07;;;5.88;;
19434;SDS011;9853;50.848;4.108;2022-08-19T09:57:11;11.13;;;5.88;;
19434;SDS011;9853;50.848;4.108;2022-08-19T09:59:13;12.65;;;5.97;;
19434;SDS011;9853;50.848;4.108;2022-08-19T10:01:18;10.75;;;5.93;;
19434;SDS011;9853;50.848;4.108;2022-08-19T10:03:25;9.95;;;5.47;;
19434;SDS011;9853;50.848;4.108;2022-08-19T10:05:30;8.48;;;4.70;;
19434;SDS011;9853;50.848;4.108;2022-08-19T10:07:48;7.65;;;4.20;;
19434;SDS011;9853;50.848;4.108;2022-08-19T10:09:48;7.35;;;3.42;;
19434;SDS011;9853;50.848;4.108;2022-08-19T10:11:49;9.43;;;3.17;;
19434;SDS011;9853;50.848;4.108;2022-08-19T10:13:53;12.35;;;4.00;;
19434;SDS011;9853;50.848;4.108;2022-08-19T10:16:01;5.80;;;3.75;;
19434;SDS011;9853;50.848;4.108;2022-08-19T10:18:06;5.85;;;3.88;;
19434;SDS011;9853;50.848;4.108;2022-08-19T10:20:09;7.15;;;4.25;;
19434;SDS011;9853;50.848;4.108;2022-08-19T10:22:10;5.90;;;4.00;;
19434;SDS011;9853;50.848;4.108;2022-08-19T10:24:14;9.77;;;4.78;;
19434;SDS011;9853;50.848;4.108;2022-08-19T10:26:20;9.43;;;4.78;;
19434;SDS011;9853;50.848;4.108;2022-08-19T10:28:29;8.73;;;5.25;;
19434;SDS011;9853;50.848;4.108;2022-08-19T10:30:30;9.95;;;5.20;;
19434;SDS011;9853;50.848;4.108;2022-08-19T10:32:30;9.10;;;5.00;;
19434;SDS011;9853;50.848;4.108;2022-08-19T10:34:31;9.68;;;5.10;;
19434;SDS011;9853;50.848;4.108;2022-08-19T10:36:34;13.15;;;4.97;;
19434;SDS011;9853;50.848;4.108;2022-08-19T10:38:36;9.00;;;4.28;;
19434;SDS011;9853;50.848;4.108;2022-08-19T10:40:37;8.50;;;4.30;;
19434;SDS011;9853;50.848;4.108;2022-08-19T10:42:38;6.60;;;3.65;;
19434;SDS011;9853;50.848;4.108;2022-08-19T10:44:39;5.90;;;3.22;;
19434;SDS011;9853;50.848;4.108;2022-08-19T10:46:41;5.60;;;3.40;;
19434;SDS011;9853;50.848;4.108;2022-08-19T10:48:44;8.52;;;4.30;;
19434;SDS011;9853;50.848;4.108;2022-08-19T10:53:12;9.32;;;3.70;;
19434;SDS011;9853;50.848;4.108;2022-08-19T10:55:12;6.28;;;4.70;;
19434;SDS011;9853;50.848;4.108;2022-08-19T10:57:39;10.75;;;6.10;;
19434;SDS011;9853;50.848;4.108;2022-08-19T10:59:41;9.35;;;5.45;;
19434;SDS011;9853;50.848;4.108;2022-08-19T11:01:43;8.07;;;5.40;;
19434;SDS011;9853;50.848;4.108;2022-08-19T11:03:45;8.05;;;6.30;;
19434;SDS011;9853;50.848;4.108;2022-08-19T11:05:45;11.45;;;6.85;;
19434;SDS011;9853;50.848;4.108;2022-08-19T11:07:46;10.18;;;7.55;;
19434;SDS011;9853;50.848;4.108;2022-08-19T11:09:47;9.63;;;6.97;;
19434;SDS011;9853;50.848;4.108;2022-08-19T11:11:48;10.82;;;6.82;;
19434;SDS011;9853;50.848;4.108;2022-08-19T11:13:49;11.40;;;6.25;;
19434;SDS011;9853;50.848;4.108;2022-08-19T11:16:00;7.78;;;6.22;;
19434;SDS011;9853;50.848;4.108;2022-08-19T11:18:03;7.00;;;6.20;;
19434;SDS011;9853;50.848;4.108;2022-08-19T11:20:06;10.15;;;6.68;;
19434;SDS011;9853;50.848;4.108;2022-08-19T11:22:09;7.20;;;5.88;;
19434;SDS011;9853;50.848;4.108;2022-08-19T11:24:12;12.98;;;6.15;;
19434;SDS011;9853;50.848;4.108;2022-08-19T11:26:15;9.85;;;5.75;;
19434;SDS011;9853;50.848;4.108;2022-08-19T11:28:17;9.15;;;6.03;;
19434;SDS011;9853;50.848;4.108;2022-08-19T11:30:18;13.80;;;5.50;;
19434;SDS011;9853;50.848;4.108;2022-08-19T11:32:18;17.70;;;5.40;;
19434;SDS011;9853;50.848;4.108;2022-08-19T11:34:20;11.75;;;4.80;;
19434;SDS011;9853;50.848;4.108;2022-08-19T11:36:22;7.78;;;4.53;;
19434;SDS011;9853;50.848;4.108;2022-08-19T11:38:23;5.53;;;4.47;;
19434;SDS011;9853;50.848;4.108;2022-08-19T11:40:24;7.40;;;4.05;;
19434;SDS011;9853;50.848;4.108;2022-08-19T11:42:25;8.50;;;4.32;;
19434;SDS011;9853;50.848;4.108;2022-08-19T11:44:44;6.25;;;3.90;;
19434;SDS011;9853;50.848;4.108;2022-08-19T11:46:46;5.95;;;3.70;;
19434;SDS011;9853;50.848;4.108;2022-08-19T11:48:47;5.75;;;3.88;;
19434;SDS011;9853;50.848;4.108;2022-08-19T11:50:49;6.18;;;3.70;;
19434;SDS011;9853;50.848;4.108;2022-08-19T11:52:53;5.45;;;3.45;;
19434;SDS011;9853;50.848;4.108;2022-08-19T11:54:55;11.15;;;3.47;;
19434;SDS011;9853;50.848;4.108;2022-08-19T11:56:55;7.20;;;3.78;;
19434;SDS011;9853;50.848;4.108;2022-08-19T11:58:56;6.22;;;3.63;;
19434;SDS011;9853;50.848;4.108;2022-08-19T12:00:57;7.82;;;2.90;;
19434;SDS011;9853;50.848;4.108;2022-08-19T12:02:58;7.00;;;2.97;;
19434;SDS011;9853;50.848;4.108;2022-08-19T12:04:59;6.60;;;3.50;;
19434;SDS011;9853;50.848;4.108;2022-08-19T12:07:03;4.40;;;3.08;;
19434;SDS011;9853;50.848;4.108;2022-08-19T12:09:05;7.07;;;3.28;;
19434;SDS011;9853;50.848;4.108;2022-08-19T12:11:14;3.65;;;2.15;;
19434;SDS011;9853;50.848;4.108;2022-08-19T12:13:15;7.10;;;2.85;;
19434;SDS011;9853;50.848;4.108;2022-08-19T12:15:18;3.63;;;2.40;;
19434;SDS011;9853;50.848;4.108;2022-08-19T12:17:19;6.03;;;2.58;;
19434;SDS011;9853;50.848;4.108;2022-08-19T12:19:19;3.95;;;2.47;;
19434;SDS011;9853;50.848;4.108;2022-08-19T12:21:24;4.60;;;2.50;;
19434;SDS011;9853;50.848;4.108;2022-08-19T12:23:30;7.30;;;2.65;;
19434;SDS011;9853;50.848;4.108;2022-08-19T12:25:30;5.22;;;2.20;;
19434;SDS011;9853;50.848;4.108;2022-08-19T12:27:32;4.55;;;2.58;;
19434;SDS011;9853;50.848;4.108;2022-08-19T12:29:33;5.40;;;2.03;;
19434;SDS011;9853;50.848;4.108;2022-08-19T12:31:34;5.32;;;2.22;;
19434;SDS011;9853;50.848;4.108;2022-08-19T12:33:34;4.20;;;2.45;;
19434;SDS011;9853;50.848;4.108;2022-08-19T12:35:38;3.70;;;2.20;;